Pagrindinis puslapis
METAR-TAF:

METAR-TAF

Oro uostai :

Epinalis, Prancūzija

platuma: 48-19-31N, ilguma: 6-04-00E, Aukštis: 330 m

Dabartinis oras

Ataskaita buvo paskelbta 35 minutes, ne 09:00 UTC
Vėjas 12 kt iš Rytų/Šiaurės Rytų
Temperatūra 15°C
Drėgmė 41%
Slėgis 1025 hPa
Matomumas 10 km arba daugiau
nėra debesų žemiau 1500 m ir nėra kamuolinių lietaus debesų

METAR: LFSG 200900Z AUTO 07012KT CAVOK 15/02 Q1025

Laikas: 11:35 (09:35 UTC)


TAF: trūkstamas

Orai ataskaitas ir orų prognozės (METAR, TAF).

turimą stotys yra geltonos ir raudonos taškus žemėlapyje.

Perkelti pele per norėdami pamatyti stoties vardą.

Tada spustelėkite, norėdami matyti oro stebėjimo ir prognozės.

Norėdami pakeisti žemėlapį: spustelėkite ant žalios mygtukų su juodo kryžiaus žemyn,; žalią mygtuką su brūkšneliu, jei norite nutolinti; arba žalių rodyklių gretimoms žemėlapius.


METAR-TAF: